createdAt,value
2018-05-07T00:00:05.506Z,38.6
2018-05-07T00:00:55.273Z,38.6
2018-05-07T00:01:45.579Z,38.6
2018-05-07T00:02:35.363Z,38.6
2018-05-07T00:03:25.524Z,38.6
2018-05-07T00:04:15.241Z,38.6
2018-05-07T00:05:05.857Z,38.5
2018-05-07T00:05:56.878Z,38.5
2018-05-07T00:06:45.974Z,38.5
2018-05-07T00:07:35.885Z,38.5
2018-05-07T00:08:25.519Z,38.5
2018-05-07T00:09:16.600Z,38.5
2018-05-07T00:10:06.002Z,38.5
2018-05-07T00:10:56.323Z,38.5
2018-05-07T00:11:47.032Z,38.5
2018-05-07T00:12:36.500Z,38.5
2018-05-07T00:13:26.255Z,38.5
2018-05-07T00:14:16.340Z,38.5
2018-05-07T00:15:06.605Z,38.4
2018-05-07T00:15:56.108Z,38.4
2018-05-07T00:16:46.472Z,38.5
2018-05-07T00:17:36.239Z,38.4
2018-05-07T00:18:26.894Z,38.4
2018-05-07T00:19:16.951Z,38.4
2018-05-07T00:20:06.731Z,38.4
2018-05-07T00:20:56.494Z,38.5
2018-05-07T00:21:46.577Z,38.4
2018-05-07T00:22:36.211Z,38.4
2018-05-07T00:23:27.271Z,38.4
2018-05-07T00:24:17.049Z,38.4
2018-05-07T00:25:06.856Z,38.4
2018-05-07T00:25:56.898Z,38.4
2018-05-07T00:26:46.993Z,38.4
2018-05-07T00:27:37.416Z,38.4
2018-05-07T00:28:27.732Z,38.4
2018-05-07T00:29:17.706Z,38.4
2018-05-07T00:30:06.669Z,38.4
2018-05-07T00:30:57.326Z,38.4
2018-05-07T00:31:47.709Z,38.4
2018-05-07T00:32:37.708Z,38.4
2018-05-07T00:33:27.509Z,38.4
2018-05-07T00:34:17.613Z,38.4
2018-05-07T00:35:08.076Z,38.4
2018-05-07T00:35:58.228Z,38.4
2018-05-07T00:36:47.743Z,38.4
2018-05-07T00:37:38.361Z,38.4
2018-05-07T00:38:27.950Z,38.4
2018-05-07T00:39:18.493Z,38.4
2018-05-07T00:40:07.735Z,38.4
2018-05-07T00:40:58.618Z,38.4
2018-05-07T00:41:48.695Z,38.4
2018-05-07T00:42:38.502Z,38.4
2018-05-07T00:43:28.335Z,38.3
2018-05-07T00:44:18.885Z,38.4
2018-05-07T00:45:08.958Z,38.4
2018-05-07T00:45:58.148Z,38.3
2018-05-07T00:46:49.080Z,38.3
2018-05-07T00:47:39.142Z,38.3
2018-05-07T00:48:28.625Z,38.3
2018-05-07T00:49:19.228Z,38.3
2018-05-07T00:50:09.285Z,38.3
2018-05-07T00:50:59.144Z,38.3
2018-05-07T00:51:48.881Z,38.3
2018-05-07T00:52:39.509Z,38.3
2018-05-07T00:53:29.654Z,38.3
2018-05-07T00:54:19.348Z,38.3
2018-05-07T00:55:08.876Z,38.3
2018-05-07T00:55:59.494Z,38.3
2018-05-07T00:56:49.836Z,38.3
2018-05-07T00:57:39.624Z,38.3
2018-05-07T00:58:29.973Z,38.3
2018-05-07T00:59:19.748Z,38.3
2018-05-07T01:00:09.257Z,38.3
2018-05-07T01:00:59.912Z,38.3
2018-05-07T01:01:49.666Z,38.3
2018-05-07T01:02:40.278Z,38.3
2018-05-07T01:03:30.078Z,38.3
2018-05-07T01:04:20.127Z,38.3
2018-05-07T01:05:09.916Z,38.3
2018-05-07T01:06:00.001Z,38.3
2018-05-07T01:06:49.827Z,38.3
2018-05-07T01:07:40.664Z,38.3
2018-05-07T01:08:30.761Z,38.3
2018-05-07T01:09:20.526Z,38.3
2018-05-07T01:10:10.318Z,38.3
2018-05-07T01:11:00.367Z,38.2
2018-05-07T01:11:50.445Z,38.3
2018-05-07T01:12:41.229Z,38.2
2018-05-07T01:13:31.126Z,38.2
2018-05-07T01:14:20.906Z,38.2
2018-05-07T01:15:10.983Z,38.2
2018-05-07T01:16:01.290Z,38.2
2018-05-07T01:16:51.109Z,38.2
2018-05-07T01:17:40.890Z,38.2
2018-05-07T01:18:31.211Z,38.2
2018-05-07T01:19:21.314Z,38.2
2018-05-07T01:20:11.074Z,38.2
2018-05-07T01:21:01.675Z,38.2
2018-05-07T01:21:51.245Z,38.2
2018-05-07T01:22:41.817Z,38.1
2018-05-07T01:23:31.877Z,38.2
2018-05-07T01:24:21.782Z,38.1
2018-05-07T01:25:11.742Z,38.1
2018-05-07T01:26:01.809Z,38.1
2018-05-07T01:26:51.308Z,38.2
2018-05-07T01:27:42.210Z,38.1
2018-05-07T01:28:32.310Z,38.1
2018-05-07T01:29:22.070Z,38.1
2018-05-07T01:30:12.157Z,38.1
2018-05-07T01:31:01.938Z,38.1
2018-05-07T01:31:51.411Z,38.1
2018-05-07T01:32:42.349Z,38.1
2018-05-07T01:33:32.732Z,38.1
2018-05-07T01:34:22.172Z,38.1
2018-05-07T01:35:12.815Z,38.1
2018-05-07T01:36:02.610Z,38.1
2018-05-07T01:36:52.673Z,38.1
2018-05-07T01:37:42.712Z,38.1
2018-05-07T01:38:32.837Z,38.1
2018-05-07T01:39:22.852Z,38.1
2018-05-07T01:40:13.181Z,38.1
2018-05-07T01:41:03.244Z,38.1
2018-05-07T01:41:53.048Z,38.1
2018-05-07T01:42:43.401Z,38.1
2018-05-07T01:43:32.937Z,38.1
2018-05-07T01:44:23.008Z,38.1
2018-05-07T01:45:13.547Z,38.1
2018-05-07T01:46:03.618Z,38.1
2018-05-07T01:46:53.417Z,38.1
2018-05-07T01:47:43.458Z,38.1
2018-05-07T01:48:33.855Z,38.1
2018-05-07T01:49:23.895Z,38.1
2018-05-07T01:50:13.984Z,38.1
2018-05-07T01:51:04.103Z,38.1
2018-05-07T01:51:54.145Z,38.1
2018-05-07T01:52:44.159Z,38.1
2018-05-07T01:53:33.955Z,38
2018-05-07T01:54:24.293Z,38.1
2018-05-07T01:55:13.816Z,38
2018-05-07T01:56:03.855Z,38
2018-05-07T01:56:54.206Z,38
2018-05-07T01:57:44.562Z,38
2018-05-07T01:58:34.330Z,38
2018-05-07T01:59:24.394Z,38
2018-05-07T02:00:14.160Z,38
2018-05-07T02:01:04.514Z,38
2018-05-07T02:01:54.583Z,38
2018-05-07T02:02:44.666Z,38
2018-05-07T02:03:34.465Z,38
2018-05-07T02:04:24.787Z,38
2018-05-07T07:27:02.920Z,36.6
2018-05-07T07:27:53.212Z,36.6
2018-05-07T07:28:43.314Z,36.6
2018-05-07T07:29:33.372Z,36.6
2018-05-07T07:30:23.426Z,36.6
2018-05-07T07:31:13.509Z,36.6
2018-05-07T07:32:03.535Z,36.6
2018-05-07T07:32:53.653Z,36.6
2018-05-07T07:33:43.607Z,36.6
2018-05-07T07:34:33.470Z,36.6
2018-05-07T07:35:23.855Z,36.6
2018-05-07T07:36:13.865Z,36.6
2018-05-07T07:37:03.959Z,36.6
2018-05-07T07:37:53.989Z,36.6
2018-05-07T07:38:43.559Z,36.6
2018-05-07T07:39:34.694Z,36.6
2018-05-07T07:40:24.204Z,36.6
2018-05-07T07:41:13.422Z,36.6
2018-05-07T07:42:04.067Z,36.6
2018-05-07T07:42:53.864Z,36.6
2018-05-07T07:43:44.182Z,36.6
2018-05-07T07:44:34.559Z,36.6
2018-05-07T07:45:24.049Z,36.6
2018-05-07T07:46:14.640Z,36.6
2018-05-07T07:47:05.286Z,36.6
2018-05-07T07:47:54.771Z,36.6
2018-05-07T07:48:44.591Z,36.6
2018-05-07T07:49:34.952Z,36.5
2018-05-07T07:50:24.441Z,36.6
2018-05-07T07:51:14.490Z,36.5
2018-05-07T07:52:04.406Z,36.5
2018-05-07T07:52:55.177Z,36.5
2018-05-07T07:53:45.556Z,36.5
2018-05-07T07:54:34.754Z,36.5
2018-05-07T07:55:24.793Z,36.5
2018-05-07T07:56:15.443Z,36.5
2018-05-07T07:57:04.671Z,36.5
2018-05-07T07:57:55.004Z,36.5
2018-05-07T07:58:44.815Z,36.5
2018-05-07T07:59:35.161Z,36.5
2018-05-07T08:00:24.919Z,36.5
2018-05-07T08:01:15.881Z,36.5
2018-05-07T08:02:05.946Z,36.5
2018-05-07T08:02:55.314Z,36.5
2018-05-07T08:03:45.749Z,36.5
2018-05-07T08:04:35.572Z,36.5
2018-05-07T08:05:25.678Z,36.5
2018-05-07T08:06:15.687Z,36.4
2018-05-07T08:07:05.747Z,36.4
2018-05-07T08:07:55.517Z,36.4
2018-05-07T08:08:45.571Z,36.4
2018-05-07T08:09:36.521Z,36.4
2018-05-07T08:10:26.596Z,36.4
2018-05-07T08:11:16.323Z,36.4
2018-05-07T08:12:05.896Z,36.4
2018-05-07T08:12:56.554Z,36.4
2018-05-07T08:13:46.588Z,36.4
2018-05-07T08:14:36.295Z,36.4
2018-05-07T08:15:26.615Z,36.4
2018-05-07T08:16:16.996Z,36.4
2018-05-07T08:17:07.124Z,36.4
2018-05-07T08:17:57.136Z,36.4
2018-05-07T08:18:46.355Z,36.4
2018-05-07T08:19:37.205Z,36.4
2018-05-07T08:20:27.336Z,36.4
2018-05-07T08:21:16.892Z,36.4
2018-05-07T08:22:06.954Z,36.4
2018-05-07T08:22:57.537Z,36.4
2018-05-07T08:23:47.604Z,36.4
2018-05-07T08:24:37.664Z,36.4
2018-05-07T08:25:27.718Z,36.4
2018-05-07T08:26:16.933Z,36.4
2018-05-07T08:27:07.279Z,36.4
2018-05-07T08:27:57.917Z,36.4
2018-05-07T08:28:47.990Z,36.4
2018-05-07T08:29:37.781Z,36.4
2018-05-07T08:30:28.638Z,36.4
2018-05-07T08:31:17.880Z,36.4
2018-05-07T08:32:07.956Z,36.4
2018-05-07T08:32:58.384Z,36.4
2018-05-07T08:33:48.104Z,36.4
2018-05-07T08:34:37.940Z,36.4
2018-05-07T08:35:28.477Z,36.4
2018-05-07T08:36:18.313Z,36.3
2018-05-07T08:37:08.322Z,36.3
2018-05-07T08:37:58.888Z,36.4
2018-05-07T08:38:48.750Z,36.3
2018-05-07T08:39:38.865Z,36.3
2018-05-07T08:40:28.327Z,36.3
2018-05-07T08:41:18.927Z,36.3
2018-05-07T08:42:08.435Z,36.3
2018-05-07T08:42:59.075Z,36.3
2018-05-07T08:43:49.139Z,36.1
2018-05-07T08:44:39.179Z,35.9
2018-05-07T08:45:28.976Z,35.8
2018-05-07T08:46:18.749Z,35.7
2018-05-07T08:47:09.386Z,35.6
2018-05-07T08:47:59.491Z,35.6
2018-05-07T08:48:48.659Z,35.6
2018-05-07T08:49:39.398Z,35.5
2018-05-07T08:50:29.135Z,35.5
2018-05-07T08:51:19.699Z,35.4
2018-05-07T08:52:09.503Z,35.4
2018-05-07T08:53:00.500Z,35.4
2018-05-07T08:53:49.615Z,35.4
2018-05-07T08:54:39.999Z,35.4
2018-05-07T08:55:30.038Z,35.4
2018-05-07T08:56:20.108Z,35.3
2018-05-07T08:57:09.661Z,35.3
2018-05-07T08:57:59.969Z,35.3
2018-05-07T08:58:49.730Z,35.3
2018-05-07T08:59:40.172Z,35.3
2018-05-07T09:00:29.873Z,35.3
2018-05-07T09:01:20.517Z,35.2
2018-05-07T09:02:11.159Z,35.2
2018-05-07T09:03:00.370Z,35.2
2018-05-07T09:03:50.230Z,35.2
2018-05-07T09:04:40.509Z,35.2
2018-05-07T09:05:30.837Z,35.2
2018-05-07T09:06:19.766Z,35.1
2018-05-07T09:07:10.406Z,35.1
2018-05-07T09:08:01.205Z,35.1
2018-05-07T09:08:50.798Z,35.1
2018-05-07T09:09:41.156Z,35.1
2018-05-07T09:10:30.926Z,35.1
2018-05-07T09:11:21.304Z,35.1
2018-05-07T09:12:11.102Z,35.1
2018-05-07T09:13:00.863Z,35.1
2018-05-07T09:13:50.654Z,35.1
2018-05-07T09:14:40.254Z,35.1
2018-05-07T09:15:30.793Z,35
2018-05-07T09:16:21.217Z,35
2018-05-07T09:17:11.769Z,35
2018-05-07T09:18:01.812Z,35
2018-05-07T09:18:51.863Z,35
2018-05-07T09:19:41.954Z,35
2018-05-07T09:20:31.236Z,34.9
2018-05-07T09:21:21.807Z,35
2018-05-07T09:22:11.589Z,34.9
2018-05-07T09:23:01.918Z,34.9
2018-05-07T09:23:51.820Z,34.9
2018-05-07T09:24:42.430Z,34.9
2018-05-07T09:25:32.131Z,34.9
2018-05-07T09:26:22.267Z,34.9
2018-05-07T09:27:12.284Z,34.9
2018-05-07T09:28:01.201Z,34.9
2018-05-07T09:28:52.761Z,34.9
2018-05-07T09:29:42.753Z,34.9
2018-05-07T09:30:32.524Z,34.9
2018-05-07T09:31:22.601Z,34.9
2018-05-07T09:32:12.372Z,34.9
2018-05-07T09:33:03.007Z,34.9
2018-05-07T09:33:52.243Z,34.9
2018-05-07T09:34:43.149Z,34.9
2018-05-07T09:35:33.185Z,34.8
2018-05-07T09:36:23.244Z,34.9
2018-05-07T09:37:13.046Z,34.8
2018-05-07T09:38:03.100Z,34.8
2018-05-07T09:38:53.479Z,34.8
2018-05-07T09:39:43.505Z,34.8
2018-05-07T09:40:33.577Z,34.8
2018-05-07T09:41:23.680Z,34.8
2018-05-07T09:42:13.718Z,34.8
2018-05-07T09:43:03.896Z,34.8
2018-05-07T09:43:53.854Z,34.8
2018-05-07T09:44:43.620Z,34.8
2018-05-07T09:45:33.681Z,34.8
2018-05-07T09:46:23.763Z,34.8
2018-05-07T09:47:14.112Z,34.8
2018-05-07T09:48:03.900Z,34.8
2018-05-07T09:48:54.269Z,34.8
2018-05-07T09:49:44.323Z,34.8
2018-05-07T09:50:33.543Z,34.8
2018-05-07T09:51:24.442Z,34.8
2018-05-07T09:52:14.504Z,34.8
2018-05-07T09:53:04.575Z,34.8
2018-05-07T09:53:54.344Z,34.8
2018-05-07T09:54:44.137Z,34.8
2018-05-07T09:55:34.203Z,34.8
2018-05-07T09:56:24.823Z,34.8
2018-05-07T09:57:14.874Z,34.8
2018-05-07T09:58:04.986Z,34.8
2018-05-07T09:58:55.093Z,34.8
2018-05-07T09:59:45.079Z,34.8
2018-05-07T10:00:34.404Z,34.8
2018-05-07T10:01:25.215Z,34.8
2018-05-07T10:02:15.019Z,34.8
2018-05-07T10:03:05.370Z,34.8
2018-05-07T10:03:55.422Z,34.8
2018-05-07T10:04:45.477Z,34.8
2018-05-07T10:05:35.041Z,34.8
2018-05-07T10:06:25.434Z,34.8
2018-05-07T10:07:15.690Z,34.8
2018-05-07T10:08:05.181Z,34.7
2018-05-07T10:08:55.544Z,34.7
2018-05-07T10:09:45.892Z,34.8
2018-05-07T10:10:35.358Z,34.7
2018-05-07T10:11:25.451Z,34.7
2018-05-07T10:12:16.068Z,34.7
2018-05-07T10:13:05.845Z,34.8
2018-05-07T10:13:55.653Z,34.7
2018-05-07T10:14:46.260Z,34.7
2018-05-07T10:15:36.411Z,34.7
2018-05-07T10:16:26.139Z,34.7
2018-05-07T10:17:16.463Z,34.7
2018-05-07T10:18:06.264Z,34.7
2018-05-07T10:18:56.603Z,34.7
2018-05-07T10:19:45.830Z,34.7
2018-05-07T10:20:36.478Z,34.7
2018-05-07T10:21:26.806Z,34.7
2018-05-07T10:22:16.315Z,34.7
2018-05-07T10:23:06.928Z,34.7
2018-05-07T10:23:56.240Z,34.7
2018-05-07T10:24:46.779Z,34.7
2018-05-07T10:25:36.833Z,34.7
2018-05-07T10:26:27.181Z,34.7
2018-05-07T10:27:16.944Z,34.7
2018-05-07T10:28:05.381Z,34.7
2018-05-07T10:28:57.219Z,34.6
2018-05-07T10:29:46.828Z,34.7
2018-05-07T10:30:37.513Z,34.6
2018-05-07T10:31:27.589Z,34.7
2018-05-07T10:32:17.126Z,34.6
2018-05-07T10:33:07.467Z,34.6
2018-05-07T10:33:57.784Z,34.7
2018-05-07T10:34:47.587Z,34.6
2018-05-07T10:35:37.611Z,34.6
2018-05-07T10:36:27.504Z,34.6
2018-05-07T10:37:18.022Z,34.6
2018-05-07T10:38:07.834Z,34.6
2018-05-07T10:38:57.313Z,34.6
2018-05-07T10:39:47.937Z,34.6
2018-05-07T10:40:37.262Z,34.6
2018-05-07T10:41:27.514Z,34.6
2018-05-07T10:42:18.416Z,34.6
2018-05-07T10:43:07.638Z,34.6
2018-05-07T10:43:58.386Z,34.6
2018-05-07T10:44:48.616Z,34.6
2018-05-07T10:45:38.690Z,34.6
2018-05-07T10:46:28.782Z,34.6
2018-05-07T10:47:18.843Z,34.6
2018-05-07T10:48:08.886Z,34.6
2018-05-07T10:48:59.009Z,34.6
2018-05-07T10:49:49.048Z,34.6
2018-05-07T10:50:38.256Z,34.6
2018-05-07T10:51:28.601Z,34.6
2018-05-07T10:52:18.687Z,34.6
2018-05-07T10:53:09.301Z,34.6
2018-05-07T10:53:58.545Z,34.6
2018-05-07T10:54:49.133Z,34.6
2018-05-07T10:55:39.193Z,34.6
2018-05-07T10:56:29.262Z,34.6
2018-05-07T10:57:19.028Z,34.6
2018-05-07T10:58:09.672Z,34.6
2018-05-07T10:58:59.177Z,34.6
2018-05-07T10:59:49.542Z,34.6
2018-05-07T11:00:39.566Z,34.6
2018-05-07T11:01:29.667Z,34.6
2018-05-07T11:02:19.707Z,34.6
2018-05-07T11:03:09.494Z,34.6
2018-05-07T11:03:59.849Z,34.6
2018-05-07T11:04:49.627Z,34.6
2018-05-07T11:05:40.245Z,34.6
2018-05-07T11:06:30.310Z,34.6
2018-05-07T11:07:20.770Z,34.6
2018-05-07T11:08:10.462Z,34.6
2018-05-07T11:08:59.944Z,34.6
2018-05-07T11:09:50.609Z,34.6
2018-05-07T11:10:40.630Z,34.6
2018-05-07T11:11:30.713Z,34.6
2018-05-07T11:12:20.617Z,34.6
2018-05-07T11:13:10.547Z,34.6
2018-05-07T11:14:00.907Z,34.6
2018-05-07T11:14:50.751Z,34.6
2018-05-07T11:15:40.182Z,34.6
2018-05-07T11:16:30.631Z,34.6
2018-05-07T11:17:21.239Z,34.6
2018-05-07T11:18:10.954Z,34.6
2018-05-07T11:19:01.041Z,34.6
2018-05-07T11:19:52.191Z,34.6
2018-05-07T11:20:41.155Z,34.6
2018-05-07T11:21:31.486Z,34.6
2018-05-07T11:22:21.531Z,34.6
2018-05-07T11:23:11.638Z,34.6
2018-05-07T11:24:01.093Z,34.6
2018-05-07T11:24:51.773Z,34.6
2018-05-07T11:25:41.520Z,34.6
2018-05-07T11:26:31.874Z,34.6
2018-05-07T11:27:21.901Z,34.6
2018-05-07T11:28:11.712Z,34.6
2018-05-07T11:29:02.085Z,34.6
2018-05-07T11:29:52.130Z,34.6
2018-05-07T11:30:41.890Z,34.6
2018-05-07T11:31:32.330Z,34.6
2018-05-07T11:32:22.036Z,34.6
2018-05-07T11:33:12.092Z,34.6
2018-05-07T11:34:02.251Z,34.5
2018-05-07T11:34:52.607Z,34.5
2018-05-07T11:35:42.595Z,34.5
2018-05-07T11:36:32.660Z,34.5
2018-05-07T11:37:22.420Z,34.5
2018-05-07T11:38:12.517Z,34.6
2018-05-07T11:39:02.978Z,34.5
2018-05-07T11:39:52.937Z,34.5
2018-05-07T11:40:42.715Z,34.5
2018-05-07T11:41:32.503Z,34.5
2018-05-07T11:42:22.576Z,34.5
2018-05-07T11:43:12.618Z,34.5
2018-05-07T11:44:01.832Z,34.5
2018-05-07T11:44:51.999Z,34.5
2018-05-07T11:45:42.637Z,34.5
2018-05-07T11:46:32.880Z,34.5
2018-05-07T11:47:23.573Z,34.5
2018-05-07T11:48:13.549Z,34.5
2018-05-07T11:49:03.375Z,34.5
2018-05-07T11:49:53.429Z,34.5
2018-05-07T11:50:43.782Z,34.5
2018-05-07T11:51:33.843Z,34.5
2018-05-07T11:52:23.349Z,34.4
2018-05-07T11:53:14.708Z,34.5
2018-05-07T11:54:03.739Z,34.4
2018-05-07T11:54:53.817Z,34.5
2018-05-07T11:55:44.192Z,34.5
2018-05-07T11:56:33.457Z,34.4
2018-05-07T11:57:24.290Z,34.4
2018-05-07T11:58:13.805Z,34.4
2018-05-07T11:59:03.099Z,34.4
2018-05-07T11:59:54.202Z,34.4
2018-05-07T12:00:44.346Z,34.3
2018-05-07T12:01:34.659Z,34.2
2018-05-07T12:02:24.897Z,34.1
2018-05-07T12:03:14.274Z,34
2018-05-07T12:04:03.484Z,34
2018-05-07T12:04:54.609Z,34
2018-05-07T12:05:44.571Z,33.9
2018-05-07T12:06:35.035Z,33.9
2018-05-07T12:07:25.094Z,33.9
2018-05-07T12:08:14.291Z,33.9
2018-05-07T12:09:06.084Z,33.9
2018-05-07T12:09:54.738Z,33.8
2018-05-07T12:10:44.513Z,33.8
2018-05-07T12:11:35.189Z,33.8
2018-05-07T12:12:25.517Z,33.8
2018-05-07T12:13:14.119Z,33.8
2018-05-07T12:14:04.748Z,33.8
2018-05-07T12:14:55.351Z,33.8
2018-05-07T12:15:45.843Z,33.7
2018-05-07T12:16:35.783Z,33.7
2018-05-07T12:17:25.299Z,33.7
2018-05-07T12:18:15.888Z,33.7
2018-05-07T12:19:05.774Z,33.7
2018-05-07T12:19:55.765Z,33.6
2018-05-07T12:20:45.852Z,33.6
2018-05-07T12:21:36.156Z,33.6
2018-05-07T12:22:25.688Z,33.6
2018-05-07T12:23:16.977Z,33.6
2018-05-07T12:24:06.459Z,33.6
2018-05-07T12:24:55.842Z,33.6
2018-05-07T12:25:46.519Z,33.6
2018-05-07T12:26:35.742Z,33.6
2018-05-07T12:27:26.625Z,33.5
2018-05-07T12:28:16.483Z,33.5
2018-05-07T12:29:06.184Z,33.5
2018-05-07T12:29:56.553Z,33.5
2018-05-07T12:30:46.884Z,33.5
2018-05-07T12:31:38.035Z,33.5
2018-05-07T12:32:26.730Z,33.5
2018-05-07T12:33:16.232Z,33.4
2018-05-07T12:34:06.893Z,33.5
2018-05-07T12:34:56.383Z,33.4
2018-05-07T12:35:46.754Z,33.4
2018-05-07T12:36:37.380Z,33.4
2018-05-07T12:37:27.411Z,33.4
2018-05-07T12:38:16.934Z,33.4
2018-05-07T12:39:06.428Z,33.4
2018-05-07T12:39:57.657Z,33.4
2018-05-07T12:40:47.658Z,33.4
2018-05-07T12:41:37.737Z,33.4
2018-05-07T12:42:27.777Z,33.4
2018-05-07T12:43:17.319Z,33.4
2018-05-07T12:44:07.643Z,33.4
2018-05-07T12:44:57.454Z,33.4
2018-05-07T12:45:48.079Z,33.4
2018-05-07T12:46:37.634Z,33.4
2018-05-07T12:47:27.957Z,33.4
2018-05-07T12:48:18.251Z,33.3
2018-05-07T12:49:08.366Z,33.3
2018-05-07T12:49:58.210Z,33.3
2018-05-07T12:50:48.210Z,33.3
2018-05-07T12:51:38.252Z,33.3
2018-05-07T12:52:29.151Z,33.3
2018-05-07T12:53:18.111Z,33.3
2018-05-07T12:54:08.084Z,33.3
2018-05-07T12:54:58.330Z,33.3
2018-05-07T12:55:48.118Z,33.3
2018-05-07T12:56:38.648Z,33.3
2018-05-07T12:57:28.535Z,33.3
2018-05-07T12:58:18.583Z,33.3
2018-05-07T12:59:09.761Z,33.3
2018-05-07T12:59:58.090Z,33.3
2018-05-07T13:00:48.698Z,33.3
2018-05-07T13:01:39.361Z,33.3
2018-05-07T13:02:29.392Z,33.3
2018-05-07T13:03:19.188Z,33.3
2018-05-07T13:04:09.555Z,33.3
2018-05-07T13:04:59.026Z,33.3
2018-05-07T13:05:49.588Z,33.3
2018-05-07T13:06:39.437Z,33.3
2018-05-07T13:07:29.778Z,33.3
2018-05-07T13:08:19.016Z,33.3
2018-05-07T13:09:09.108Z,33.3
2018-05-07T13:09:59.720Z,33.3
2018-05-07T13:10:49.213Z,33.3
2018-05-07T13:11:40.568Z,33.3
2018-05-07T13:12:29.920Z,33.3
2018-05-07T13:13:19.717Z,33.3
2018-05-07T13:14:10.042Z,33.3
2018-05-07T13:15:00.091Z,33.3
2018-05-07T13:15:49.623Z,33.3
2018-05-07T13:16:40.212Z,33.3
2018-05-07T13:17:30.551Z,33.2
2018-05-07T13:18:20.488Z,33.2
2018-05-07T13:19:10.781Z,33.3
2018-05-07T13:20:00.767Z,33.3
2018-05-07T13:20:50.877Z,33.3
2018-05-07T13:21:40.908Z,33.3
2018-05-07T13:22:30.944Z,33.2
2018-05-07T13:23:21.014Z,33.2
2018-05-07T13:24:11.298Z,33.3
2018-05-07T13:25:01.239Z,33.2
2018-05-07T13:25:51.228Z,33.2
2018-05-07T13:26:40.996Z,33.2
2018-05-07T13:27:30.814Z,33.2
2018-05-07T13:28:20.894Z,33.2
2018-05-07T13:29:11.226Z,33.2
2018-05-07T13:30:01.261Z,33.2
2018-05-07T13:30:51.409Z,33.2
2018-05-07T13:31:41.411Z,33.2
2018-05-07T13:32:31.772Z,33.2
2018-05-07T13:33:21.631Z,33.2
2018-05-07T13:34:11.380Z,33.2
2018-05-07T13:35:01.710Z,33.2
2018-05-07T13:35:52.069Z,33.2
2018-05-07T13:36:41.878Z,33.2
2018-05-07T13:37:31.311Z,33.2
2018-05-07T13:38:21.683Z,33.2
2018-05-07T13:39:12.042Z,33.2
2018-05-07T13:40:02.077Z,33.2
2018-05-07T13:40:52.152Z,33.2
2018-05-07T13:41:42.502Z,33.2
2018-05-07T13:42:32.259Z,33.2
2018-05-07T13:43:22.055Z,33.2
2018-05-07T13:44:12.182Z,33.2
2018-05-07T13:45:02.745Z,33.2
2018-05-07T13:45:52.809Z,33.2
2018-05-07T13:46:42.868Z,33.2
2018-05-07T13:47:32.960Z,33.2
2018-05-07T13:48:23.032Z,33.2
2018-05-07T13:49:12.534Z,33.2
2018-05-07T13:50:02.861Z,33.2
2018-05-07T13:50:52.683Z,33.2
2018-05-07T13:51:43.264Z,33.2
2018-05-07T13:52:33.332Z,33.2
2018-05-07T13:53:23.406Z,33.2
2018-05-07T13:54:13.176Z,33.1
2018-05-07T13:55:03.288Z,33.2
2018-05-07T13:55:53.087Z,33.2
2018-05-07T13:56:43.753Z,33.1
2018-05-07T13:57:33.460Z,33.1
2018-05-07T13:58:23.830Z,33.1
2018-05-07T13:59:13.605Z,33.1
2018-05-07T14:00:03.935Z,33.1
2018-05-07T14:00:54.039Z,33.2
2018-05-07T14:01:44.089Z,33.2
2018-05-07T14:02:34.388Z,33.2
2018-05-07T14:03:23.913Z,33.1
2018-05-07T14:04:14.270Z,33.1
2018-05-07T14:05:04.349Z,33.1
2018-05-07T14:05:54.376Z,33.1
2018-05-07T14:06:43.911Z,33.1
2018-05-07T14:07:34.246Z,33.1
2018-05-07T14:08:24.858Z,33.1
2018-05-07T14:09:14.676Z,33.1
2018-05-07T14:10:04.204Z,33.1
2018-05-07T14:10:54.529Z,33.1
2018-05-07T14:11:44.579Z,33.1
2018-05-07T14:12:34.969Z,33.1
2018-05-07T14:13:24.745Z,33.1
2018-05-07T14:14:14.491Z,33.1
2018-05-07T14:15:04.875Z,33.1
2018-05-07T14:15:54.623Z,33.1
2018-05-07T14:16:45.966Z,33.1
2018-05-07T14:17:35.046Z,33.1
2018-05-07T14:18:25.384Z,33.1
2018-05-07T14:19:14.946Z,33.1
2018-05-07T14:20:05.278Z,33.1
2018-05-07T14:20:55.593Z,33.1
2018-05-07T14:21:45.663Z,33.1
2018-05-07T14:22:35.180Z,33.1
2018-05-07T14:23:25.801Z,33.1
2018-05-07T14:24:15.883Z,33.2
2018-05-07T14:25:05.696Z,33.1
2018-05-07T14:25:55.757Z,33.1
2018-05-07T14:26:46.040Z,33.1
2018-05-07T14:27:36.138Z,33.1
2018-05-07T14:28:25.917Z,33.1
2018-05-07T14:29:15.996Z,33.1
2018-05-07T14:30:06.053Z,33.1
2018-05-07T14:30:55.846Z,33.1
2018-05-07T14:31:45.923Z,33.1
2018-05-07T14:32:36.250Z,33.1
2018-05-07T14:33:26.273Z,33.1
2018-05-07T14:34:15.897Z,33.1
2018-05-07T14:35:06.731Z,33.1
2018-05-07T14:35:56.522Z,33.1
2018-05-07T14:36:46.575Z,33.1
2018-05-07T14:37:36.604Z,33.1
2018-05-07T14:38:26.978Z,33.1
2018-05-07T14:39:16.776Z,33.1
2018-05-07T14:40:07.139Z,33.1
2018-05-07T14:40:57.217Z,33.1
2018-05-07T14:41:44.747Z,33.1
2018-05-07T14:42:35.387Z,33.1
2018-05-07T14:43:24.884Z,33.1
2018-05-07T14:44:15.532Z,33.1
2018-05-07T14:45:05.586Z,33.1
2018-05-07T14:45:55.366Z,33.1
2018-05-07T14:46:45.431Z,33.1
2018-05-07T14:47:35.503Z,33.1
2018-05-07T14:48:25.839Z,33.1
2018-05-07T14:49:15.922Z,33.1
2018-05-07T14:50:05.685Z,33.1
2018-05-07T14:50:56.046Z,33.1
2018-05-07T14:51:45.832Z,33.1
2018-05-07T14:52:35.902Z,33.1
2018-05-07T14:53:25.699Z,33.1
2018-05-07T14:54:16.023Z,33.1
2018-05-07T14:55:06.384Z,33.1
2018-05-07T14:55:56.960Z,33.1
2018-05-07T14:56:46.500Z,33.1
2018-05-07T14:57:36.558Z,33.1
2018-05-07T14:58:26.080Z,33.1
2018-05-07T14:59:16.420Z,33.1
2018-05-07T15:00:06.763Z,33.1
2018-05-07T15:00:56.839Z,33.1
2018-05-07T15:01:46.334Z,33.1
2018-05-07T15:02:36.949Z,33.1
2018-05-07T15:03:27.024Z,33.1
2018-05-07T15:04:17.084Z,33.1
2018-05-07T15:05:07.167Z,33.1
2018-05-07T15:05:57.223Z,33.1
2018-05-07T15:06:47.294Z,33.1
2018-05-07T15:07:37.375Z,33
2018-05-07T15:08:27.418Z,32.8
2018-05-07T15:09:17.494Z,31.6
2018-05-07T15:10:07.014Z,29.8
2018-05-07T15:10:59.561Z,27.1
2018-05-07T15:11:49.061Z,24.6
2018-05-07T15:12:39.703Z,22.5
2018-05-07T15:13:29.459Z,21.2
2018-05-07T15:14:19.803Z,20.3
2018-05-07T15:15:09.581Z,19.4
2018-05-07T15:15:59.649Z,18.9
2018-05-07T15:16:50.020Z,18.4
2018-05-07T15:17:39.827Z,17.7
2018-05-07T15:18:30.141Z,17.3
2018-05-07T15:19:19.673Z,17.1
2018-05-07T15:20:10.295Z,16.9
2018-05-07T15:20:59.516Z,16.9
2018-05-07T15:21:50.139Z,16.9
2018-05-07T15:22:40.188Z,16.9
2018-05-07T15:23:31.023Z,16.9
2018-05-07T15:24:20.319Z,16.9
2018-05-07T15:25:10.104Z,16.9
2018-05-07T15:26:00.751Z,16.9
2018-05-07T15:29:21.669Z,17.1
2018-05-07T15:30:11.074Z,17.1
2018-05-07T15:31:00.857Z,17.1
2018-05-07T15:31:51.224Z,17.1
2018-05-07T15:32:41.017Z,17.1
2018-05-07T15:33:30.501Z,17.1
2018-05-07T15:34:21.414Z,17.2
2018-05-07T15:35:11.484Z,17.2
2018-05-07T15:36:01.264Z,17.2
2018-05-07T15:36:51.342Z,17.2
2018-05-07T15:37:41.656Z,17.3
2018-05-07T15:38:31.167Z,17.3
2018-05-07T15:39:21.828Z,17.3
2018-05-07T15:40:11.600Z,17.3
2018-05-07T15:41:01.671Z,17.3
2018-05-07T15:41:51.716Z,17.4
2018-05-07T15:42:40.366Z,17.4
2018-05-07T15:43:31.888Z,17.4
2018-05-07T15:44:21.372Z,17.4
2018-05-07T15:45:12.286Z,17.4
2018-05-07T15:46:02.042Z,17.4
2018-05-07T15:46:52.411Z,17.5
2018-05-07T15:47:42.203Z,17.5
2018-05-07T15:48:32.560Z,17.5
2018-05-07T15:49:23.254Z,17.6
2018-05-07T15:50:12.110Z,17.6
2018-05-07T15:51:02.158Z,17.6
2018-05-07T15:51:52.528Z,17.6
2018-05-07T15:52:42.833Z,17.6
2018-05-07T15:53:32.897Z,17.6
2018-05-07T15:54:22.724Z,17.6
2018-05-07T15:55:13.036Z,17.7
2018-05-07T15:56:03.759Z,17.7
2018-05-07T15:56:53.212Z,17.7
2018-05-07T15:57:42.707Z,17.8
2018-05-07T15:58:33.361Z,17.8
2018-05-07T15:59:23.118Z,17.8
2018-05-07T16:00:12.906Z,17.8
2018-05-07T16:01:03.248Z,17.8
2018-05-07T16:01:53.575Z,17.8
2018-05-07T16:02:44.211Z,17.9
2018-05-07T16:03:33.137Z,17.9
2018-05-07T16:04:23.493Z,17.9
2018-05-07T16:05:13.274Z,17.9
2018-05-07T16:06:03.367Z,17.9
2018-05-07T16:06:53.991Z,17.9
2018-05-07T16:07:43.516Z,18
2018-05-07T16:08:34.161Z,18
2018-05-07T16:09:23.927Z,18.1
2018-05-07T16:10:14.219Z,18.1
2018-05-07T16:11:04.324Z,18.1
2018-05-07T16:11:54.459Z,18.1
2018-05-07T16:12:44.485Z,18.1
2018-05-07T16:13:34.485Z,18.1
2018-05-07T16:14:23.991Z,18.1
2018-05-07T16:15:15.138Z,18.2
2018-05-07T16:16:04.433Z,18.2
2018-05-07T16:16:54.845Z,18.2
2018-05-07T16:17:44.789Z,18.2
2018-05-07T16:18:35.115Z,18.3
2018-05-07T16:19:24.685Z,18.3
2018-05-07T16:20:14.471Z,18.3
2018-05-07T16:21:04.852Z,18.3
2018-05-07T16:21:55.760Z,18.3
2018-05-07T16:22:45.232Z,18.3
2018-05-07T16:23:37.053Z,18.4
2018-05-07T16:24:25.048Z,18.4
2018-05-07T16:25:14.873Z,18.4
2018-05-07T16:26:05.495Z,18.4
2018-05-07T16:26:55.280Z,18.4
2018-05-07T16:27:45.636Z,18.4
2018-05-07T16:28:35.662Z,18.5
2018-05-07T16:29:25.476Z,18.5
2018-05-07T16:30:15.538Z,18.5
2018-05-07T16:31:06.660Z,18.6
2018-05-07T16:31:55.992Z,18.6